Time;durP1;ratioP1;P1;durP2;ratioP2;P2;SDS_P1;SDS_P2;PMS_P1;PMS_P2;Temp;Humidity;BMP_temperature;BMP_pressure;BME280_temperature;BME280_humidity;BME280_pressure;Samples;Min_cycle;Max_cycle;Signal;HPM_P1;HPM_P2
2022/04/18 00:00:34;;;;;;;2.78;1.52;;;8.90;58.30;;;;;;5053841;28;20024;-59
2022/04/18 00:03:03;;;;;;;3.88;1.70;;;8.80;58.50;;;;;;5055192;28;20284;-58
2022/04/18 00:05:30;;;;;;;2.90;1.45;;;8.80;59.50;;;;;;5054578;28;20044;-60
2022/04/18 00:07:56;;;;;;;3.22;2.15;;;8.70;58.90;;;;;;5054582;28;20036;-58
2022/04/18 00:10:21;;;;;;;4.80;1.65;;;8.70;59.00;;;;;;5054806;28;20029;-57
2022/04/18 00:12:47;;;;;;;5.32;2.03;;;8.60;59.70;;;;;;5054656;28;20028;-58
2022/04/18 00:15:13;;;;;;;3.17;1.60;;;8.50;59.50;;;;;;5053127;28;20032;-58
2022/04/18 00:17:39;;;;;;;4.47;2.78;;;8.50;59.30;;;;;;5052955;28;20596;-58
2022/04/18 00:20:05;;;;;;;2.72;1.70;;;8.50;59.60;;;;;;5054576;28;20040;-58
2022/04/18 00:22:31;;;;;;;4.03;1.98;;;8.50;59.60;;;;;;5054774;28;20025;-60
2022/04/18 00:24:56;;;;;;;7.30;2.47;;;8.50;59.60;;;;;;5054653;28;20017;-56
2022/04/18 00:27:22;;;;;;;6.70;2.25;;;8.50;59.70;;;;;;5054143;28;20025;-57
2022/04/18 00:29:50;;;;;;;3.33;1.92;;;8.40;59.70;;;;;;5054288;28;20413;-58
2022/04/18 00:32:16;;;;;;;4.22;1.85;;;8.40;59.90;;;;;;5052405;28;20039;-58
2022/04/18 00:34:42;;;;;;;8.00;2.03;;;8.40;60.10;;;;;;5054214;28;20053;-59
2022/04/18 00:37:08;;;;;;;3.92;1.70;;;8.40;60.90;;;;;;5054245;28;20463;-59
2022/04/18 00:39:33;;;;;;;2.75;1.92;;;8.30;60.40;;;;;;5053128;28;20099;-57
2022/04/18 00:41:59;;;;;;;6.40;2.03;;;8.40;60.20;;;;;;5053067;28;20067;-58
2022/04/18 00:44:25;;;;;;;3.95;1.65;;;8.30;60.60;;;;;;5054468;28;20021;-58
2022/04/18 00:46:50;;;;;;;4.88;2.10;;;8.30;60.40;;;;;;5053607;28;20107;-59
2022/04/18 00:49:16;;;;;;;4.47;2.10;;;8.30;60.70;;;;;;5053692;28;20032;-56
2022/04/18 00:51:42;;;;;;;2.55;1.73;;;8.30;61.10;;;;;;5054006;28;20055;-60
2022/04/18 00:54:10;;;;;;;3.03;1.88;;;8.20;61.10;;;;;;5054226;28;20033;-60
2022/04/18 00:56:35;;;;;;;3.28;1.90;;;8.20;61.40;;;;;;5053562;28;20453;-59
2022/04/18 00:59:01;;;;;;;6.82;2.00;;;8.20;61.40;;;;;;5053127;28;20040;-57
2022/04/18 01:01:27;;;;;;;4.57;1.90;;;8.10;61.40;;;;;;5053442;28;20068;-59
2022/04/18 01:03:52;;;;;;;4.78;1.85;;;8.00;61.60;;;;;;5054505;28;20040;-60
2022/04/18 01:06:18;;;;;;;7.30;2.10;;;8.00;61.60;;;;;;5053302;28;20511;-58
2022/04/18 01:08:46;;;;;;;3.00;1.77;;;8.00;62.10;;;;;;5053523;28;20040;-60
2022/04/18 01:11:11;;;;;;;5.85;2.20;;;7.90;62.00;;;;;;5053105;28;20029;-58
2022/04/18 01:13:42;;;;;;;9.07;2.00;;;7.90;62.60;;;;;;5053752;28;20036;-57
2022/04/18 01:16:08;;;;;;;4.60;2.00;;;7.80;62.50;;;;;;5053619;28;20099;-58
2022/04/18 01:18:35;;;;;;;4.53;1.70;;;7.70;63.90;;;;;;5053418;28;20025;-57
2022/04/18 01:21:01;;;;;;;5.65;1.70;;;7.80;62.80;;;;;;5053279;28;20025;-59
2022/04/18 01:23:26;;;;;;;3.83;1.80;;;7.70;62.90;;;;;;5053730;28;20021;-59
2022/04/18 01:31:20;;;;;;;4.10;1.90;;;7.60;63.80;;;;;;5053522;28;20475;-57
2022/04/18 01:33:45;;;;;;;3.50;1.92;;;7.50;64.70;;;;;;5053366;28;20049;-57
2022/04/18 01:36:11;;;;;;;4.47;1.67;;;7.40;65.40;;;;;;5052632;28;20109;-59
2022/04/18 01:38:36;;;;;;;3.75;1.83;;;7.40;64.50;;;;;;5052988;28;20029;-59
2022/04/18 01:41:02;;;;;;;6.78;1.40;;;7.30;64.10;;;;;;5053125;28;20025;-58
2022/04/18 01:43:27;;;;;;;3.58;1.80;;;7.30;64.50;;;;;;5052197;28;20033;-55
2022/04/18 01:45:53;;;;;;;2.85;1.70;;;7.30;64.10;;;;;;5052384;28;20037;-58
2022/04/18 01:48:18;;;;;;;2.72;1.70;;;7.30;64.80;;;;;;5051320;28;20107;-58
2022/04/18 01:50:44;;;;;;;4.30;2.22;;;7.40;64.10;;;;;;5052720;28;20021;-64
2022/04/18 01:53:09;;;;;;;3.15;1.70;;;7.40;64.40;;;;;;5052657;28;20037;-58
2022/04/18 01:55:35;;;;;;;3.70;2.10;;;7.40;64.00;;;;;;5053199;28;20373;-57
2022/04/18 01:58:01;;;;;;;3.30;1.98;;;7.30;64.50;;;;;;5052423;28;20545;-56
2022/04/18 02:00:27;;;;;;;3.92;1.73;;;7.30;64.90;;;;;;5053143;28;20131;-57
2022/04/18 02:02:53;;;;;;;3.60;1.95;;;7.20;66.70;;;;;;5052826;28;20052;-55
2022/04/18 02:05:19;;;;;;;3.15;1.98;;;7.10;65.60;;;;;;5052632;28;20029;-59
2022/04/18 02:07:44;;;;;;;2.65;1.60;;;7.10;65.70;;;;;;5052416;28;20025;-57
2022/04/18 02:10:10;;;;;;;4.30;2.15;;;7.10;66.20;;;;;;5052416;28;20044;-60
2022/04/18 02:12:36;;;;;;;4.35;1.60;;;7.00;67.70;;;;;;5052819;28;20108;-60
2022/04/18 02:15:02;;;;;;;3.60;1.80;;;7.00;66.70;;;;;;5052529;28;20110;-57
2022/04/18 02:17:27;;;;;;;4.30;1.92;;;6.90;68.00;;;;;;5052083;28;20029;-59
2022/04/18 02:19:53;;;;;;;3.67;1.85;;;6.90;67.10;;;;;;5052274;28;20087;-59
2022/04/18 02:22:21;;;;;;;3.92;1.75;;;6.90;66.90;;;;;;5052813;28;20484;-58
2022/04/18 02:24:47;;;;;;;2.90;2.00;;;6.90;66.80;;;;;;5052150;28;20028;-59
2022/04/18 02:27:12;;;;;;;3.22;1.77;;;6.90;67.40;;;;;;5052492;28;20415;-60
2022/04/18 02:29:38;;;;;;;3.70;1.70;;;6.90;68.10;;;;;;5052835;28;20480;-60
2022/04/18 02:34:47;;;;;;;7.22;1.63;;;7.00;66.80;;;;;;5052389;28;20090;-57
2022/04/18 02:37:13;;;;;;;7.15;2.10;;;7.00;66.70;;;;;;5051573;28;20048;-59
2022/04/18 02:39:38;;;;;;;5.93;2.13;;;7.10;67.10;;;;;;5052163;28;20071;-58
2022/04/18 02:42:04;;;;;;;4.18;1.80;;;7.00;66.90;;;;;;5052232;28;20044;-59
2022/04/18 02:44:30;;;;;;;3.72;1.88;;;7.00;67.50;;;;;;5052202;28;20029;-57
2022/04/18 02:46:55;;;;;;;3.15;1.80;;;6.80;68.80;;;;;;5051932;28;20029;-57
2022/04/18 02:49:21;;;;;;;3.40;1.75;;;6.80;68.50;;;;;;5052077;28;20505;-58
2022/04/18 02:51:47;;;;;;;6.00;1.83;;;6.80;68.40;;;;;;5051841;28;20037;-58
2022/04/18 02:54:12;;;;;;;3.42;1.50;;;6.60;69.60;;;;;;5052116;28;20485;-57
2022/04/18 02:56:38;;;;;;;5.28;1.63;;;6.60;68.40;;;;;;5055590;28;20025;-58
2022/04/18 02:59:03;;;;;;;4.28;1.88;;;6.70;68.70;;;;;;5055841;28;20028;-58
2022/04/18 03:01:29;;;;;;;4.50;2.22;;;6.70;68.90;;;;;;5056057;28;20078;-56
2022/04/18 03:03:54;;;;;;;6.70;2.03;;;6.80;68.50;;;;;;5056063;28;20036;-59
2022/04/18 03:06:20;;;;;;;4.95;1.98;;;6.70;69.50;;;;;;5055495;28;20043;-59
2022/04/18 03:08:46;;;;;;;5.80;2.03;;;6.80;68.20;;;;;;5055762;28;20443;-58
2022/04/18 03:11:11;;;;;;;6.90;2.00;;;6.80;68.20;;;;;;5055796;28;20060;-57
2022/04/18 03:13:44;;;;;;;3.50;1.58;;;6.70;69.00;;;;;;5055963;28;20024;-59
2022/04/18 03:16:11;;;;;;;4.07;2.50;;;6.80;68.60;;;;;;5055879;28;20037;-58
2022/04/18 03:18:37;;;;;;;3.67;1.63;;;6.80;69.00;;;;;;5055495;28;20309;-57
2022/04/18 03:21:04;;;;;;;3.17;1.65;;;6.80;68.80;;;;;;5055469;28;20033;-58
2022/04/18 03:23:30;;;;;;;3.17;1.70;;;6.80;69.60;;;;;;5055536;28;20032;-58
2022/04/18 03:25:57;;;;;;;4.43;1.77;;;6.80;68.60;;;;;;5055645;28;20484;-59
2022/04/18 03:28:22;;;;;;;3.78;1.75;;;6.80;69.10;;;;;;5056102;28;20021;-58
2022/04/18 03:30:48;;;;;;;2.50;1.42;;;6.70;69.30;;;;;;5054283;28;20040;-56
2022/04/18 03:33:14;;;;;;;3.55;1.70;;;6.70;69.40;;;;;;5055558;28;20033;-58
2022/04/18 03:39:50;;;;;;;6.60;1.70;;;6.60;69.90;;;;;;5055160;28;20033;-58
2022/04/18 03:41:09;;;;;;;3.53;2.00;;;6.60;70.00;;;;;;5055355;28;20039;-58
2022/04/18 03:43:35;;;;;;;3.15;1.60;;;6.50;70.50;;;;;;5055626;28;20115;-61
2022/04/18 03:46:00;;;;;;;3.58;1.85;;;6.50;70.40;;;;;;5055391;28;20100;-60
2022/04/18 03:48:26;;;;;;;4.85;1.80;;;6.50;70.60;;;;;;5054987;28;20060;-57
2022/04/18 03:50:51;;;;;;;2.60;1.55;;;6.40;70.70;;;;;;5055003;28;20028;-58
2022/04/18 03:53:17;;;;;;;3.40;1.90;;;6.40;71.50;;;;;;5055166;28;20028;-59
2022/04/18 03:55:43;;;;;;;2.42;1.60;;;6.30;71.60;;;;;;5055089;28;20056;-58
2022/04/18 03:58:08;;;;;;;3.58;1.58;;;6.30;71.60;;;;;;5055181;28;20381;-56
2022/04/18 04:00:35;;;;;;;6.63;1.70;;;6.30;71.80;;;;;;5055107;28;20025;-59
2022/04/18 04:03:00;;;;;;;4.00;1.80;;;6.30;71.50;;;;;;5054980;28;20017;-58
2022/04/18 04:05:26;;;;;;;2.60;1.70;;;6.30;71.70;;;;;;5054810;28;20039;-57
2022/04/18 04:07:51;;;;;;;4.80;1.92;;;6.30;72.10;;;;;;5053661;28;20045;-59
2022/04/18 04:10:23;;;;;;;3.20;1.90;;;6.30;72.40;;;;;;5055098;28;20036;-57
2022/04/18 04:12:48;;;;;;;3.30;1.88;;;6.30;72.70;;;;;;5054829;28;20029;-58
2022/04/18 04:15:14;;;;;;;3.08;2.13;;;6.20;72.50;;;;;;5054771;28;20029;-58
2022/04/18 04:17:40;;;;;;;3.13;1.85;;;6.10;73.90;;;;;;5054433;28;20484;-58
2022/04/18 04:20:06;;;;;;;3.38;1.80;;;5.90;74.10;;;;;;5054563;28;20079;-58
2022/04/18 04:22:32;;;;;;;4.55;2.10;;;5.80;76.00;;;;;;5054774;28;20029;-58
2022/04/18 04:24:58;;;;;;;4.93;1.95;;;5.70;76.50;;;;;;5054690;28;20523;-57
2022/04/18 04:27:23;;;;;;;5.28;1.77;;;5.50;77.00;;;;;;5054019;28;20021;-59
2022/04/18 04:29:49;;;;;;;4.47;2.03;;;5.60;76.40;;;;;;5054213;28;20032;-60
2022/04/18 04:32:15;;;;;;;6.65;3.45;;;5.60;76.30;;;;;;5053884;28;20147;-58
2022/04/18 04:34:41;;;;;;;2.40;1.67;;;5.70;76.20;;;;;;5053149;28;20476;-58
2022/04/18 04:37:06;;;;;;;5.50;1.70;;;5.70;76.00;;;;;;5054041;28;20025;-57
2022/04/18 04:39:32;;;;;;;4.32;1.77;;;5.70;76.20;;;;;;5054334;28;20373;-57
2022/04/18 04:41:58;;;;;;;3.67;1.88;;;5.80;76.30;;;;;;5054173;28;20031;-55
2022/04/18 04:44:23;;;;;;;3.17;2.15;;;5.80;76.10;;;;;;5054281;28;20031;-60
2022/04/18 04:46:49;;;;;;;4.13;2.20;;;5.80;76.10;;;;;;5053472;28;20021;-58
2022/04/18 04:49:14;;;;;;;5.25;2.30;;;5.90;76.20;;;;;;5053682;28;20017;-58
2022/04/18 04:51:40;;;;;;;6.47;1.63;;;5.90;76.10;;;;;;5054016;28;20029;-58
2022/04/18 04:54:05;;;;;;;3.28;1.80;;;5.90;76.30;;;;;;5054017;28;20028;-59
2022/04/18 04:56:31;;;;;;;3.97;2.03;;;6.00;75.90;;;;;;5053651;28;20104;-56
2022/04/18 04:58:56;;;;;;;3.25;1.75;;;6.00;76.00;;;;;;5053781;28;20033;-58
2022/04/18 05:01:22;;;;;;;3.05;1.80;;;6.00;75.90;;;;;;5053571;28;20090;-60
2022/04/18 05:03:48;;;;;;;4.35;2.15;;;6.00;76.40;;;;;;5053391;28;20025;-58
2022/04/18 05:06:14;;;;;;;4.93;1.85;;;6.00;76.80;;;;;;5053249;28;20404;-59
2022/04/18 05:08:43;;;;;;;3.95;1.92;;;6.10;77.40;;;;;;5053438;28;20028;-58
2022/04/18 05:11:09;;;;;;;4.70;1.88;;;6.40;77.20;;;;;;5053461;28;20032;-61
2022/04/18 05:13:34;;;;;;;3.38;1.85;;;6.90;77.90;;;;;;5053655;28;20480;-60
2022/04/18 05:16:00;;;;;;;5.20;2.33;;;7.40;75.50;;;;;;5052874;28;20021;-59
2022/04/18 05:18:27;;;;;;;3.33;1.60;;;7.70;74.90;;;;;;5052741;28;20151;-59
2022/04/18 05:20:52;;;;;;;4.68;2.28;;;7.90;74.00;;;;;;5052811;28;20435;-59
2022/04/18 05:23:20;;;;;;;5.53;2.28;;;8.20;71.60;;;;;;5053289;28;20025;-59
2022/04/18 05:25:46;;;;;;;4.40;1.95;;;8.50;71.50;;;;;;5052967;28;20017;-58
2022/04/18 05:28:11;;;;;;;4.25;1.92;;;8.90;69.00;;;;;;5052767;28;20271;-59
2022/04/18 05:30:37;;;;;;;2.97;1.85;;;9.60;67.20;;;;;;5053052;28;20025;-58
2022/04/18 05:33:03;;;;;;;4.30;1.75;;;10.20;65.40;;;;;;5052870;28;20029;-59
2022/04/18 05:35:29;;;;;;;6.05;1.67;;;11.10;63.90;;;;;;5052640;28;20037;-59
2022/04/18 05:37:55;;;;;;;3.42;1.60;;;12.10;61.00;;;;;;5051059;28;20086;-60
2022/04/18 05:40:20;;;;;;;5.40;1.80;;;12.90;59.80;;;;;;5052431;28;20031;-60
2022/04/18 05:42:46;;;;;;;2.78;2.00;;;13.70;56.90;;;;;;5052574;28;20027;-59
2022/04/18 05:45:11;;;;;;;4.70;2.38;;;14.20;56.00;;;;;;5052205;28;20143;-59
2022/04/18 05:47:37;;;;;;;4.70;2.13;;;14.30;55.20;;;;;;5051927;28;20477;-59
2022/04/18 05:50:03;;;;;;;4.25;2.03;;;14.00;55.80;;;;;;5052010;28;20033;-61
2022/04/18 05:52:29;;;;;;;4.10;1.98;;;13.50;56.90;;;;;;5052283;28;20033;-59
2022/04/18 05:54:54;;;;;;;3.13;2.00;;;13.20;57.70;;;;;;5052149;28;20043;-60
2022/04/18 05:57:21;;;;;;;4.15;1.85;;;13.20;58.40;;;;;;5051795;28;20083;-61
2022/04/18 05:59:47;;;;;;;3.40;2.13;;;13.50;57.60;;;;;;5052312;28;20025;-60
2022/04/18 06:02:13;;;;;;;5.20;2.75;;;13.90;56.50;;;;;;5052466;28;20029;-58
2022/04/18 06:04:39;;;;;;;5.20;1.92;;;13.90;57.40;;;;;;5052538;28;20025;-59
2022/04/18 06:07:05;;;;;;;4.50;2.10;;;14.10;57.20;;;;;;5051503;28;20112;-57
2022/04/18 06:09:31;;;;;;;4.65;2.42;;;14.70;56.40;;;;;;5052671;28;20112;-56
2022/04/18 06:11:57;;;;;;;4.88;2.20;;;16.10;53.50;;;;;;5052198;28;20492;-59
2022/04/18 06:14:22;;;;;;;5.57;2.90;;;16.20;54.00;;;;;;5052052;28;20032;-58
2022/04/18 06:16:48;;;;;;;4.72;2.53;;;16.80;52.30;;;;;;5051543;28;20107;-59
2022/04/18 06:19:13;;;;;;;3.10;2.00;;;17.90;49.90;;;;;;5052164;28;20124;-59
2022/04/18 06:21:39;;;;;;;4.40;2.15;;;17.40;50.30;;;;;;5052470;28;20095;-59
2022/04/18 06:24:05;;;;;;;5.05;2.08;;;17.70;50.30;;;;;;5051356;28;20472;-57
2022/04/18 06:26:30;;;;;;;4.22;2.03;;;18.40;49.70;;;;;;5051362;28;20029;-60
2022/04/18 06:28:57;;;;;;;4.40;2.00;;;18.60;49.00;;;;;;5051541;28;20487;-59
2022/04/18 06:31:24;;;;;;;3.65;1.92;;;19.70;48.10;;;;;;5051164;28;20025;-60
2022/04/18 06:33:49;;;;;;;3.25;1.70;;;20.70;45.20;;;;;;5051694;28;20040;-58
2022/04/18 06:36:15;;;;;;;2.92;1.75;;;20.60;45.50;;;;;;5051249;28;20021;-59
2022/04/18 06:38:40;;;;;;;6.35;2.50;;;20.90;45.70;;;;;;5051338;28;20033;-58
2022/04/18 06:41:08;;;;;;;3.65;2.15;;;21.60;44.40;;;;;;5051177;28;20504;-59
2022/04/18 06:43:33;;;;;;;2.95;1.60;;;22.50;43.80;;;;;;5051539;28;20028;-58
2022/04/18 06:45:59;;;;;;;3.42;1.92;;;21.60;44.80;;;;;;5051252;28;20017;-59
2022/04/18 06:48:24;;;;;;;3.08;2.10;;;22.20;42.60;;;;;;5051526;28;20029;-61
2022/04/18 06:50:50;;;;;;;3.70;1.50;;;21.80;44.60;;;;;;5051703;28;20021;-60
2022/04/18 06:53:15;;;;;;;2.92;1.67;;;22.60;44.40;;;;;;5051147;28;20108;-62
2022/04/18 06:58:26;;;;;;;4.55;1.63;;;23.00;42.80;;;;;;5051070;28;20032;-59
2022/04/18 07:00:51;;;;;;;3.70;2.03;;;22.70;42.30;;;;;;5051442;28;20018;-59
2022/04/18 07:03:17;;;;;;;3.60;1.98;;;22.80;42.40;;;;;;5051461;28;20392;-60
2022/04/18 07:05:43;;;;;;;5.22;2.38;;;23.10;42.10;;;;;;5050943;28;20017;-61
2022/04/18 07:08:09;;;;;;;2.55;1.63;;;23.10;42.50;;;;;;5051131;28;20097;-60
2022/04/18 07:10:34;;;;;;;2.85;1.90;;;23.00;43.30;;;;;;5051532;28;20403;-60
2022/04/18 07:13:00;;;;;;;3.60;1.83;;;22.90;42.20;;;;;;5051268;28;20104;-61
2022/04/18 07:15:26;;;;;;;3.33;1.50;;;23.30;42.80;;;;;;5051234;28;20120;-60
2022/04/18 07:17:51;;;;;;;2.35;1.40;;;24.80;41.60;;;;;;5051056;28;20025;-61
2022/04/18 07:20:17;;;;;;;3.88;1.88;;;25.10;41.00;;;;;;5050879;28;20047;-62
2022/04/18 07:22:43;;;;;;;4.95;1.80;;;24.10;40.20;;;;;;5051212;28;20036;-61
2022/04/18 07:25:08;;;;;;;3.00;1.80;;;23.50;41.00;;;;;;5051109;28;20024;-61
2022/04/18 07:27:34;;;;;;;4.00;1.60;;;23.30;41.20;;;;;;5051160;28;20029;-62
2022/04/18 07:30:00;;;;;;;4.28;1.80;;;23.60;41.70;;;;;;5051177;28;20036;-61
2022/04/18 07:32:26;;;;;;;3.40;1.75;;;23.80;40.40;;;;;;5051019;28;20021;-61
2022/04/18 07:34:53;;;;;;;3.05;1.80;;;24.10;41.10;;;;;;5050771;28;20033;-61
2022/04/18 07:37:19;;;;;;;2.65;1.85;;;24.40;41.70;;;;;;5050699;28;20476;-61
2022/04/18 07:39:44;;;;;;;3.08;1.55;;;24.20;41.10;;;;;;5050793;28;20044;-61
2022/04/18 07:42:10;;;;;;;4.85;1.77;;;24.10;39.90;;;;;;5053821;28;20040;-59
2022/04/18 07:44:35;;;;;;;4.82;1.63;;;24.90;39.70;;;;;;5054845;28;20028;-61
2022/04/18 07:47:01;;;;;;;1.90;1.60;;;24.30;39.20;;;;;;5054371;28;20025;-61
2022/04/18 07:49:26;;;;;;;3.47;1.92;;;24.80;40.20;;;;;;5053938;28;20106;-60
2022/04/18 07:51:52;;;;;;;2.83;1.70;;;24.70;39.50;;;;;;5054948;28;20495;-60
2022/04/18 07:54:20;;;;;;;3.20;1.85;;;23.80;40.10;;;;;;5054638;28;20021;-61
2022/04/18 07:56:46;;;;;;;2.58;1.70;;;24.70;40.20;;;;;;5054270;28;20025;-60
2022/04/18 07:59:13;;;;;;;4.22;2.00;;;25.30;38.50;;;;;;5054008;28;20029;-61
2022/04/18 08:01:38;;;;;;;5.32;2.45;;;25.30;38.80;;;;;;5054646;28;20452;-59
2022/04/18 08:04:04;;;;;;;4.68;1.70;;;25.20;37.70;;;;;;5054458;28;20060;-61
2022/04/18 08:06:31;;;;;;;3.75;2.00;;;24.60;38.30;;;;;;5054090;28;20029;-61
2022/04/18 08:08:58;;;;;;;3.30;1.95;;;24.30;39.40;;;;;;5054164;28;20041;-60
2022/04/18 08:11:24;;;;;;;2.45;1.58;;;24.20;38.60;;;;;;5054187;28;20033;-60
2022/04/18 08:13:50;;;;;;;3.58;1.67;;;25.00;38.80;;;;;;5054115;28;20031;-59
2022/04/18 08:16:16;;;;;;;3.65;1.85;;;24.60;38.50;;;;;;5053948;28;20036;-59
2022/04/18 08:18:44;;;;;;;2.55;1.67;;;24.90;38.50;;;;;;5053840;28;20036;-59
2022/04/18 08:21:11;;;;;;;3.63;1.95;;;24.80;39.00;;;;;;5053964;28;20449;-58
2022/04/18 08:23:37;;;;;;;3.30;2.22;;;25.30;38.30;;;;;;5053682;28;20021;-59
2022/04/18 08:26:04;;;;;;;4.07;1.80;;;25.50;37.90;;;;;;5053592;28;20036;-60
2022/04/18 08:28:30;;;;;;;4.22;1.77;;;24.20;38.40;;;;;;5053409;28;20104;-58
2022/04/18 08:30:57;;;;;;;6.45;2.00;;;24.60;38.70;;;;;;5053824;28;20146;-59
2022/04/18 08:33:23;;;;;;;4.00;1.90;;;23.80;39.10;;;;;;5053692;28;20529;-59
2022/04/18 08:35:49;;;;;;;5.18;2.13;;;24.70;38.90;;;;;;5053668;28;20033;-60
2022/04/18 08:38:15;;;;;;;5.90;2.38;;;25.10;37.80;;;;;;5052996;28;20422;-56
2022/04/18 08:40:46;;;;;;;2.33;1.90;;;24.40;38.60;;;;;;5053753;28;20032;-58
2022/04/18 08:43:11;;;;;;;5.57;2.13;;;23.80;39.00;;;;;;5053556;28;20032;-60
2022/04/18 08:45:38;;;;;;;3.75;2.15;;;23.80;39.00;;;;;;5053256;28;20029;-59
2022/04/18 08:53:35;;;;;;;4.55;1.80;;;24.00;39.00;;;;;;5053077;28;20032;-59
2022/04/18 08:56:01;;;;;;;6.13;1.83;;;24.30;40.50;;;;;;5052642;28;20484;-61
2022/04/18 08:58:27;;;;;;;3.42;2.05;;;25.10;39.40;;;;;;5053080;28;20464;-62
2022/04/18 09:00:55;;;;;;;4.80;2.22;;;26.00;38.60;;;;;;5053231;28;20037;-59
2022/04/18 09:03:20;;;;;;;2.58;2.10;;;25.60;37.50;;;;;;5053173;28;20024;-60
2022/04/18 09:05:46;;;;;;;3.40;1.85;;;24.90;38.60;;;;;;5052901;28;20754;-61
2022/04/18 09:08:12;;;;;;;3.10;1.92;;;25.80;38.80;;;;;;5053246;28;20048;-62
2022/04/18 09:10:40;;;;;;;4.05;2.00;;;26.10;37.90;;;;;;5053054;28;20036;-61
2022/04/18 09:13:13;;;;;;;2.30;1.52;;;25.50;37.00;;;;;;5053260;28;20056;-60
2022/04/18 09:15:41;;;;;;;3.38;1.98;;;24.20;38.20;;;;;;5052950;28;20056;-61
2022/04/18 09:18:18;;;;;;;3.22;1.80;;;24.10;38.90;;;;;;5052379;28;20434;-60
2022/04/18 09:20:54;;;;;;;4.28;2.15;;;24.80;39.20;;;;;;5052489;28;20033;-60
2022/04/18 09:23:25;;;;;;;3.50;2.05;;;24.60;37.70;;;;;;5052813;28;20025;-61
2022/04/18 09:26:05;;;;;;;4.35;2.15;;;24.60;37.60;;;;;;5052767;28;20021;-60
2022/04/18 09:28:33;;;;;;;3.13;1.65;;;24.90;37.90;;;;;;5052327;28;20067;-62
2022/04/18 09:31:02;;;;;;;5.03;1.95;;;24.30;37.80;;;;;;5052673;28;20032;-61
2022/04/18 09:33:30;;;;;;;3.30;1.58;;;23.70;39.50;;;;;;5052520;28;20041;-60
2022/04/18 09:36:18;;;;;;;2.75;1.88;;;24.40;40.20;;;;;;5052826;28;20044;-61
2022/04/18 09:38:55;;;;;;;3.03;2.05;;;24.70;38.50;;;;;;5052029;28;20041;-60
2022/04/18 09:41:22;;;;;;;3.08;1.90;;;25.10;39.00;;;;;;5052510;28;20032;-62
2022/04/18 09:43:49;;;;;;;4.75;2.08;;;25.20;37.40;;;;;;5052716;28;20065;-59
2022/04/18 09:46:16;;;;;;;4.78;2.08;;;25.10;37.00;;;;;;5052271;28;20365;-61
2022/04/18 09:48:42;;;;;;;7.03;3.05;;;25.00;37.50;;;;;;5051747;28;20144;-61
2022/04/18 09:51:16;;;;;;;2.88;1.85;;;24.80;36.90;;;;;;5052131;28;20078;-61
2022/04/18 09:53:45;;;;;;;3.20;2.10;;;24.40;36.90;;;;;;5052249;28;20108;-57
2022/04/18 09:56:20;;;;;;;7.70;2.05;;;23.50;39.30;;;;;;5052077;28;20021;-60
2022/04/18 09:58:46;;;;;;;3.90;2.20;;;23.50;38.20;;;;;;5052066;28;20087;-59
2022/04/18 10:01:12;;;;;;;3.78;2.00;;;23.30;39.00;;;;;;5051790;28;20021;-60
2022/04/18 10:03:39;;;;;;;4.47;2.40;;;23.60;40.30;;;;;;5052184;28;20029;-59
2022/04/18 10:06:06;;;;;;;3.67;2.10;;;23.20;38.90;;;;;;5050690;28;20385;-57
2022/04/18 10:08:33;;;;;;;3.83;2.13;;;22.90;38.60;;;;;;5051780;28;20373;-57
2022/04/18 10:11:00;;;;;;;3.85;2.30;;;22.30;39.70;;;;;;5053173;28;20017;-59
2022/04/18 10:13:28;;;;;;;3.28;2.42;;;21.80;41.10;;;;;;5051902;28;20032;-58
2022/04/18 10:15:55;;;;;;;3.80;2.53;;;21.90;39.90;;;;;;5051698;28;20109;-58
2022/04/18 10:18:22;;;;;;;3.95;2.33;;;21.30;40.80;;;;;;5051316;28;20025;-57
2022/04/18 10:21:06;;;;;;;3.10;2.38;;;21.50;41.40;;;;;;5051982;28;20025;-57
2022/04/18 10:23:57;;;;;;;3.08;2.20;;;21.20;40.40;;;;;;5051697;28;20024;-57
2022/04/18 10:26:50;;;;;;;4.82;2.60;;;20.90;42.10;;;;;;5051582;28;20013;-58
2022/04/18 10:29:31;;;;;;;3.83;2.17;;;20.40;43.00;;;;;;5051833;28;20488;-57
2022/04/18 10:32:00;;;;;;;4.68;2.88;;;20.50;41.40;;;;;;5051690;28;20313;-58
2022/04/18 10:34:31;;;;;;;3.63;2.13;;;20.80;43.20;;;;;;5051788;28;20021;-57
2022/04/18 10:36:59;;;;;;;3.67;2.42;;;20.90;42.30;;;;;;5050813;28;20448;-57
2022/04/18 10:39:35;;;;;;;2.42;1.83;;;20.50;41.80;;;;;;5051575;28;20079;-56
2022/04/18 10:42:18;;;;;;;3.00;2.25;;;20.70;42.30;;;;;;5051602;28;20017;-58
2022/04/18 10:44:56;;;;;;;2.17;1.58;;;20.60;42.80;;;;;;5051661;28;20472;-57
2022/04/18 10:47:22;;;;;;;3.08;2.30;;;20.70;43.80;;;;;;5050995;28;20510;-57
2022/04/18 10:50:27;;;;;;;3.75;2.25;;;19.90;40.80;;;;;;5050935;28;20036;-56
2022/04/18 10:53:19;;;;;;;4.97;2.17;;;19.90;43.50;;;;;;5050908;28;20021;-58
2022/04/18 10:55:51;;;;;;;3.53;2.05;;;20.00;45.10;;;;;;5051558;28;20458;-57
2022/04/18 10:58:20;;;;;;;3.60;1.88;;;20.00;43.00;;;;;;5049940;28;20017;-58
2022/04/18 11:00:51;;;;;;;3.10;1.75;;;20.00;43.10;;;;;;5051210;28;20029;-57
2022/04/18 11:03:35;;;;;;;2.90;2.15;;;19.90;44.20;;;;;;5051330;28;20499;-57
2022/04/18 11:06:32;;;;;;;4.18;2.40;;;19.70;42.60;;;;;;5050922;28;20062;-57
2022/04/18 11:09:08;;;;;;;4.82;2.30;;;19.40;42.80;;;;;;5051054;28;20506;-57
2022/04/18 11:12:12;;;;;;;3.30;1.98;;;19.20;44.50;;;;;;5050302;28;20049;-55
2022/04/18 11:14:41;;;;;;;4.38;2.20;;;19.20;45.10;;;;;;5049366;28;20041;-57
2022/04/18 11:17:09;;;;;;;3.20;1.88;;;19.30;45.20;;;;;;5053540;28;20039;-59
2022/04/18 11:19:40;;;;;;;2.85;1.58;;;19.10;43.00;;;;;;5055017;28;20021;-56
2022/04/18 11:22:14;;;;;;;3.72;1.40;;;19.30;43.50;;;;;;5055149;28;20035;-56
2022/04/18 11:24:42;;;;;;;1.77;1.42;;;19.30;43.10;;;;;;5055168;28;20048;-57
2022/04/18 11:27:14;;;;;;;3.90;1.33;;;19.30;44.70;;;;;;5054748;28;20041;-57
2022/04/18 11:29:42;;;;;;;4.83;2.20;;;19.40;43.60;;;;;;5055178;28;20032;-58
2022/04/18 11:32:09;;;;;;;6.07;1.90;;;19.60;44.80;;;;;;5055465;28;20025;-58
2022/04/18 11:34:36;;;;;;;2.72;1.92;;;19.70;43.80;;;;;;5054962;28;20480;-56
2022/04/18 11:37:04;;;;;;;1.92;1.33;;;19.70;44.20;;;;;;5054565;28;20052;-59
2022/04/18 11:39:46;;;;;;;3.05;1.30;;;19.80;44.30;;;;;;5054529;28;20508;-57
2022/04/18 11:42:20;;;;;;;2.55;1.70;;;19.80;43.60;;;;;;5054627;28;20025;-59
2022/04/18 11:44:48;;;;;;;2.75;1.52;;;19.70;43.70;;;;;;5054435;28;20108;-58
2022/04/18 11:47:18;;;;;;;2.38;1.38;;;19.50;43.50;;;;;;5054097;28;20025;-56
2022/04/18 11:49:45;;;;;;;2.03;1.70;;;19.40;43.30;;;;;;5054728;28;20025;-56
2022/04/18 11:52:18;;;;;;;4.32;1.80;;;19.30;44.60;;;;;;5054794;28;20395;-58
2022/04/18 11:55:02;;;;;;;3.33;1.50;;;19.20;43.70;;;;;;5054633;28;20598;-57
2022/04/18 11:57:30;;;;;;;2.03;1.45;;;19.20;45.30;;;;;;5054075;28;20039;-56
2022/04/18 11:59:56;;;;;;;2.72;1.50;;;19.20;44.70;;;;;;5054713;28;20064;-60
2022/04/18 12:08:09;;;;;;;3.83;1.52;;;19.30;45.10;;;;;;5054362;28;20428;-58
2022/04/18 12:10:38;;;;;;;4.18;1.52;;;19.30;45.30;;;;;;5054010;28;20111;-60
2022/04/18 12:13:08;;;;;;;3.25;1.60;;;19.30;44.90;;;;;;5054163;28;20048;-60
2022/04/18 12:15:35;;;;;;;4.72;1.88;;;18.90;44.50;;;;;;5053633;28;20029;-55
2022/04/18 12:18:10;;;;;;;1.90;1.25;;;18.80;45.80;;;;;;5053548;28;20029;-58
2022/04/18 12:20:40;;;;;;;2.78;1.45;;;18.80;44.80;;;;;;5053911;28;20175;-60
2022/04/18 12:23:06;;;;;;;2.55;1.40;;;18.90;45.30;;;;;;5054044;28;20056;-60
2022/04/18 12:25:32;;;;;;;3.45;1.30;;;18.60;44.30;;;;;;5053869;28;20112;-57
2022/04/18 12:28:03;;;;;;;3.88;1.63;;;18.60;44.90;;;;;;5052299;28;20021;-59
2022/04/18 12:30:28;;;;;;;3.55;1.35;;;18.60;44.60;;;;;;5053819;28;20036;-60
2022/04/18 12:32:54;;;;;;;1.88;1.45;;;18.60;45.20;;;;;;5053767;28;20104;-58
2022/04/18 12:35:51;;;;;;;2.45;1.48;;;18.50;44.50;;;;;;5053747;28;20032;-58
2022/04/18 12:38:19;;;;;;;2.53;1.27;;;18.40;44.60;;;;;;5044209;28;20032;-57
2022/04/18 12:40:52;;;;;;;1.95;1.15;;;18.30;45.50;;;;;;5053533;28;20050;-60
2022/04/18 12:43:17;;;;;;;3.53;1.42;;;18.30;45.10;;;;;;5053372;28;20491;-57
2022/04/18 12:45:57;;;;;;;7.30;3.03;;;18.30;47.60;;;;;;5053076;28;20056;-57
2022/04/18 12:48:29;;;;;;;2.58;1.30;;;18.30;45.70;;;;;;5053233;28;20029;-56
2022/04/18 12:50:57;;;;;;;2.88;1.38;;;18.40;47.50;;;;;;5053137;28;20403;-57
2022/04/18 12:53:45;;;;;;;1.95;1.48;;;18.50;45.60;;;;;;5053467;28;20036;-56
2022/04/18 12:56:11;;;;;;;5.03;1.20;;;18.60;44.70;;;;;;5053536;28;20054;-56
2022/04/18 12:58:40;;;;;;;2.88;1.35;;;18.50;44.50;;;;;;5052712;28;20023;-58
2022/04/18 13:01:07;;;;;;;1.45;1.10;;;18.60;43.80;;;;;;5053315;28;20032;-55
2022/04/18 13:03:43;;;;;;;2.47;1.33;;;18.50;43.40;;;;;;5053067;28;20128;-58
2022/04/18 13:06:09;;;;;;;2.63;1.38;;;18.30;45.00;;;;;;5052812;28;20032;-58
2022/04/18 13:08:39;;;;;;;2.05;1.25;;;18.30;45.00;;;;;;5052771;28;20021;-59
2022/04/18 13:11:05;;;;;;;2.85;1.67;;;18.40;46.30;;;;;;5053059;28;20391;-56
2022/04/18 13:13:31;;;;;;;2.00;1.60;;;18.50;45.30;;;;;;5053032;28;20048;-58
2022/04/18 13:15:57;;;;;;;1.38;1.00;;;18.50;44.90;;;;;;5052796;28;20420;-55
2022/04/18 13:18:28;;;;;;;6.10;1.67;;;18.60;44.40;;;;;;5052830;28;20059;-58